ESIB

Såtenäs Air Base Airport

Såtenäs, Sweden
METAR ESIB 182120Z AUTO 21013KT 9999 FEW150/// 16/16 Q1011
Observed Flight Rules
Aug-18 @ 21:20 UTC (34 minutes ago) Visual Flight Rules
Wind Visibility Clouds
210° at 13 knots 10,000+ meters
  • Few at 15,000' AGL
Temperatures Readings
Current 16°C / 61°F
Dewpoint 16°C / 61°F
Humidity 100%
Altimeter 29.85" Hg
Pressure 1011 hPa
Elevation 74
METAR ESIB 182120Z AUTO 21013KT 9999 FEW150/// 16/16 Q1011
Observed Flight Rules
Aug-18 @ 21:20 UTC
(34 minutes ago)
VFR
Wind Visibility
210° at 13 knots 10,000+ meters
Clouds
  • Few at 15,000' AGL
Temperature Dewpoint
16°C / 61°F 16°C / 61°F
Humidity Altimeter Pressure
100% 29.85" Hg 1011 hPa